Downe, United Kingdom

3:22 AM GMT on December 11, 2016 (GMT +0000)
Biggin Hill | | Change Station

Elev 495 ft 51.31 °N, 0.03 °E | Updated 25 seconds ago

Clear
Clear
42.6 °F
Feels Like 43 °F
N
0.0
Wind Variable Wind from SW
Gusts 1.6 mph

Today
High -- | Low -- °F
--% Chance of Precip.
Yesterday
High -- | Low -- °F
Precip. -- in
Pressure 30.21 in
Visibility 6.2 miles
Clouds Few 1500 ft
Windchill 43 °F
Dew Point 41 °F
Humidity 93%
Rainfall 0.69 in
Snow Depth Not available.
7:54 AM 3:51 PM
Waxing Gibbous, 88% visible
METAR EGLC 110250Z AUTO 25009KT 210V280 9999 FEW015 08/06 Q1023
Pressure 30.21 in
Visibility 6.2 miles
Clouds Few 1500 ft
Windchill 43 °F
Dew Point 41 °F
Humidity 93%
Rainfall 0.69 in
Snow Depth Not available.
7:54 AM 3:51 PM
Waxing Gibbous, 88% visible
METAR EGLC 110250Z AUTO 25009KT 210V280 9999 FEW015 08/06 Q1023

10-Day Weather Forecast

×

Almanac

Astronomy

Dec. 11, 2016 Rise Set
Actual Time
Civil Twilight
Nautical Twilight
Astronomical Twilight
Moon
Length of Visible Light
Length of Day
Tomorrow will be .
, % of the Moon is Illuminated

Today's Extremes

Country Highs Country Lows

Community

WunderPhotos

Upload Photos

1,956,699 photos uploaded!

WunderBlog® & News

Nearby

Air Quality

  Air Quality AQ Index Pollutant
Not available.

Snow Depth

Station Depth Elevation

Earthquake Activity

City Distance Mag. Time & Date
Minimum magnitude displayed is 2.5.

Coastal Water Temperatures

Place Temperature

Stations

Nearby Weather Stations

Station Location Temp. Windchill Dew Point Humidity Wind Precip. Elev Updated Type